sensor_id;sensor_type;location;lat;lon;timestamp;P1;durP1;ratioP1;P2;durP2;ratioP2
42670;SDS011;28283;55.426;37.756;2023-01-01T00:00:05;13.90;;;6.82;;
42670;SDS011;28283;55.426;37.756;2023-01-01T00:05:06;12.45;;;7.55;;
42670;SDS011;28283;55.426;37.756;2023-01-01T00:15:27;19.13;;;8.10;;
42670;SDS011;28283;55.426;37.756;2023-01-01T00:20:28;14.40;;;8.93;;
42670;SDS011;28283;55.426;37.756;2023-01-01T00:25:29;14.15;;;8.32;;
42670;SDS011;28283;55.426;37.756;2023-01-01T00:30:31;7.30;;;5.55;;
42670;SDS011;28283;55.426;37.756;2023-01-01T00:35:32;12.25;;;7.53;;
42670;SDS011;28283;55.426;37.756;2023-01-01T00:40:33;12.77;;;6.68;;
42670;SDS011;28283;55.426;37.756;2023-01-01T00:45:33;8.73;;;5.97;;
42670;SDS011;28283;55.426;37.756;2023-01-01T00:50:34;10.48;;;5.13;;
42670;SDS011;28283;55.426;37.756;2023-01-01T00:55:35;11.02;;;7.25;;
42670;SDS011;28283;55.426;37.756;2023-01-01T01:00:38;9.02;;;5.72;;
42670;SDS011;28283;55.426;37.756;2023-01-01T01:05:38;9.10;;;6.10;;
42670;SDS011;28283;55.426;37.756;2023-01-01T01:10:39;7.68;;;5.13;;
42670;SDS011;28283;55.426;37.756;2023-01-01T01:15:40;6.17;;;5.10;;
42670;SDS011;28283;55.426;37.756;2023-01-01T01:20:47;6.68;;;4.57;;
42670;SDS011;28283;55.426;37.756;2023-01-01T01:25:49;8.15;;;4.07;;
42670;SDS011;28283;55.426;37.756;2023-01-01T01:30:50;6.72;;;3.83;;
42670;SDS011;28283;55.426;37.756;2023-01-01T01:35:51;4.97;;;3.88;;
42670;SDS011;28283;55.426;37.756;2023-01-01T01:40:52;5.68;;;3.63;;
42670;SDS011;28283;55.426;37.756;2023-01-01T03:15:30;4.68;;;3.50;;
42670;SDS011;28283;55.426;37.756;2023-01-01T03:20:35;3.28;;;2.75;;
42670;SDS011;28283;55.426;37.756;2023-01-01T03:25:44;3.90;;;3.53;;
42670;SDS011;28283;55.426;37.756;2023-01-01T03:30:49;4.85;;;3.28;;
42670;SDS011;28283;55.426;37.756;2023-01-01T03:35:59;5.40;;;3.97;;
42670;SDS011;28283;55.426;37.756;2023-01-01T03:41:04;5.07;;;4.27;;
42670;SDS011;28283;55.426;37.756;2023-01-01T03:46:16;4.88;;;4.38;;
42670;SDS011;28283;55.426;37.756;2023-01-01T03:56:51;4.43;;;4.03;;
42670;SDS011;28283;55.426;37.756;2023-01-01T04:02:14;4.22;;;3.85;;
42670;SDS011;28283;55.426;37.756;2023-01-01T04:07:19;6.80;;;3.53;;
42670;SDS011;28283;55.426;37.756;2023-01-01T04:12:21;6.43;;;4.07;;
42670;SDS011;28283;55.426;37.756;2023-01-01T04:17:22;4.55;;;4.15;;
42670;SDS011;28283;55.426;37.756;2023-01-01T04:22:24;5.13;;;4.63;;
42670;SDS011;28283;55.426;37.756;2023-01-01T04:27:25;5.13;;;4.65;;
42670;SDS011;28283;55.426;37.756;2023-01-01T04:32:26;5.45;;;3.78;;
42670;SDS011;28283;55.426;37.756;2023-01-01T04:37:26;4.22;;;3.83;;
42670;SDS011;28283;55.426;37.756;2023-01-01T04:42:27;4.07;;;3.77;;
42670;SDS011;28283;55.426;37.756;2023-01-01T04:47:28;4.38;;;3.65;;
42670;SDS011;28283;55.426;37.756;2023-01-01T04:52:28;3.50;;;3.20;;
42670;SDS011;28283;55.426;37.756;2023-01-01T04:57:29;4.27;;;3.87;;
42670;SDS011;28283;55.426;37.756;2023-01-01T05:02:31;4.20;;;3.90;;
42670;SDS011;28283;55.426;37.756;2023-01-01T05:07:32;4.13;;;3.83;;
42670;SDS011;28283;55.426;37.756;2023-01-01T05:12:33;5.70;;;3.80;;
42670;SDS011;28283;55.426;37.756;2023-01-01T05:17:33;3.13;;;2.70;;
42670;SDS011;28283;55.426;37.756;2023-01-01T05:22:34;4.25;;;3.95;;
42670;SDS011;28283;55.426;37.756;2023-01-01T05:27:34;3.80;;;3.50;;
42670;SDS011;28283;55.426;37.756;2023-01-01T05:32:35;4.97;;;3.28;;
42670;SDS011;28283;55.426;37.756;2023-01-01T05:42:37;3.35;;;3.05;;
42670;SDS011;28283;55.426;37.756;2023-01-01T05:47:38;3.25;;;2.95;;
42670;SDS011;28283;55.426;37.756;2023-01-01T05:52:38;6.18;;;4.13;;
42670;SDS011;28283;55.426;37.756;2023-01-01T05:57:39;3.40;;;3.10;;
42670;SDS011;28283;55.426;37.756;2023-01-01T06:02:40;3.80;;;3.53;;
42670;SDS011;28283;55.426;37.756;2023-01-01T06:07:40;3.43;;;3.23;;
42670;SDS011;28283;55.426;37.756;2023-01-01T06:12:41;3.20;;;2.90;;
42670;SDS011;28283;55.426;37.756;2023-01-01T06:17:41;3.83;;;3.55;;
42670;SDS011;28283;55.426;37.756;2023-01-01T06:22:42;2.40;;;2.28;;
42670;SDS011;28283;55.426;37.756;2023-01-01T06:27:43;3.60;;;3.30;;
42670;SDS011;28283;55.426;37.756;2023-01-01T06:32:44;3.35;;;3.05;;
42670;SDS011;28283;55.426;37.756;2023-01-01T06:37:45;3.78;;;3.47;;
42670;SDS011;28283;55.426;37.756;2023-01-01T06:42:45;2.90;;;2.58;;
42670;SDS011;28283;55.426;37.756;2023-01-01T06:47:46;2.53;;;2.33;;
42670;SDS011;28283;55.426;37.756;2023-01-01T06:52:47;2.33;;;2.13;;
42670;SDS011;28283;55.426;37.756;2023-01-01T06:57:50;2.65;;;2.45;;
42670;SDS011;28283;55.426;37.756;2023-01-01T07:02:51;1.80;;;1.70;;
42670;SDS011;28283;55.426;37.756;2023-01-01T07:07:52;1.97;;;1.87;;
42670;SDS011;28283;55.426;37.756;2023-01-01T07:12:52;1.73;;;1.63;;
42670;SDS011;28283;55.426;37.756;2023-01-01T07:17:53;1.73;;;1.63;;
42670;SDS011;28283;55.426;37.756;2023-01-01T07:22:54;1.63;;;1.52;;
42670;SDS011;28283;55.426;37.756;2023-01-01T07:27:55;4.43;;;2.45;;
42670;SDS011;28283;55.426;37.756;2023-01-01T07:32:55;1.83;;;1.50;;
42670;SDS011;28283;55.426;37.756;2023-01-01T07:37:56;1.60;;;1.27;;
42670;SDS011;28283;55.426;37.756;2023-01-01T07:42:57;1.50;;;1.40;;
42670;SDS011;28283;55.426;37.756;2023-01-01T07:47:58;0.90;;;0.90;;
42670;SDS011;28283;55.426;37.756;2023-01-01T07:52:59;1.88;;;1.70;;
42670;SDS011;28283;55.426;37.756;2023-01-01T07:58:00;1.70;;;1.38;;
42670;SDS011;28283;55.426;37.756;2023-01-01T08:08:02;1.52;;;1.42;;
42670;SDS011;28283;55.426;37.756;2023-01-01T08:13:03;1.40;;;1.30;;
42670;SDS011;28283;55.426;37.756;2023-01-01T08:18:05;2.05;;;1.85;;
42670;SDS011;28283;55.426;37.756;2023-01-01T08:23:06;1.75;;;1.65;;
42670;SDS011;28283;55.426;37.756;2023-01-01T08:28:07;1.45;;;1.35;;
42670;SDS011;28283;55.426;37.756;2023-01-01T08:33:09;2.20;;;1.92;;
42670;SDS011;28283;55.426;37.756;2023-01-01T08:38:10;2.97;;;2.05;;
42670;SDS011;28283;55.426;37.756;2023-01-01T08:43:11;2.45;;;2.25;;
42670;SDS011;28283;55.426;37.756;2023-01-01T08:48:11;2.40;;;2.20;;
42670;SDS011;28283;55.426;37.756;2023-01-01T08:53:12;2.97;;;2.40;;
42670;SDS011;28283;55.426;37.756;2023-01-01T08:58:15;3.83;;;3.53;;
42670;SDS011;28283;55.426;37.756;2023-01-01T09:03:16;3.83;;;2.28;;
42670;SDS011;28283;55.426;37.756;2023-01-01T09:38:25;11.20;;;5.32;;
42670;SDS011;28283;55.426;37.756;2023-01-01T09:59:29;6.78;;;4.95;;
42670;SDS011;28283;55.426;37.756;2023-01-01T13:06:22;3.78;;;3.40;;
42670;SDS011;28283;55.426;37.756;2023-01-01T13:11:54;3.28;;;2.97;;
42670;SDS011;28283;55.426;37.756;2023-01-01T13:17:20;3.65;;;3.35;;
42670;SDS011;28283;55.426;37.756;2023-01-01T13:28:19;2.30;;;2.17;;
42670;SDS011;28283;55.426;37.756;2023-01-01T14:04:51;4.07;;;2.40;;
42670;SDS011;28283;55.426;37.756;2023-01-01T15:28:13;3.95;;;3.13;;
42670;SDS011;28283;55.426;37.756;2023-01-01T15:39:58;4.45;;;3.35;;
42670;SDS011;28283;55.426;37.756;2023-01-01T15:45:40;4.85;;;4.38;;
42670;SDS011;28283;55.426;37.756;2023-01-01T15:51:05;4.40;;;3.78;;
42670;SDS011;28283;55.426;37.756;2023-01-01T15:56:12;4.00;;;3.58;;
42670;SDS011;28283;55.426;37.756;2023-01-01T16:07:21;5.45;;;4.95;;
42670;SDS011;28283;55.426;37.756;2023-01-01T16:12:32;2.58;;;2.28;;
42670;SDS011;28283;55.426;37.756;2023-01-01T16:17:41;6.80;;;5.43;;
42670;SDS011;28283;55.426;37.756;2023-01-01T16:22:51;4.63;;;3.88;;
42670;SDS011;28283;55.426;37.756;2023-01-01T16:33:03;6.78;;;5.05;;
42670;SDS011;28283;55.426;37.756;2023-01-01T16:38:27;5.95;;;4.80;;
42670;SDS011;28283;55.426;37.756;2023-01-01T16:43:31;4.93;;;3.92;;
42670;SDS011;28283;55.426;37.756;2023-01-01T16:48:34;5.80;;;5.15;;
42670;SDS011;28283;55.426;37.756;2023-01-01T16:53:36;5.65;;;4.75;;
42670;SDS011;28283;55.426;37.756;2023-01-01T16:58:40;7.43;;;5.43;;
42670;SDS011;28283;55.426;37.756;2023-01-01T17:08:42;6.55;;;4.40;;
42670;SDS011;28283;55.426;37.756;2023-01-01T17:13:43;5.38;;;4.00;;
42670;SDS011;28283;55.426;37.756;2023-01-01T17:18:49;5.30;;;3.65;;
42670;SDS011;28283;55.426;37.756;2023-01-01T17:23:50;4.50;;;3.42;;
42670;SDS011;28283;55.426;37.756;2023-01-01T17:28:54;6.20;;;5.40;;
42670;SDS011;28283;55.426;37.756;2023-01-01T17:33:58;6.47;;;5.43;;
42670;SDS011;28283;55.426;37.756;2023-01-01T18:12:54;9.27;;;5.20;;
42670;SDS011;28283;55.426;37.756;2023-01-01T18:30:00;9.90;;;4.43;;
42670;SDS011;28283;55.426;37.756;2023-01-01T18:36:21;7.18;;;4.75;;
42670;SDS011;28283;55.426;37.756;2023-01-01T18:51:57;4.70;;;3.65;;
42670;SDS011;28283;55.426;37.756;2023-01-01T19:37:14;7.68;;;6.03;;
42670;SDS011;28283;55.426;37.756;2023-01-01T22:22:22;0.80;;;0.80;;
42670;SDS011;28283;55.426;37.756;2023-01-01T22:27:51;6.18;;;0.70;;
42670;SDS011;28283;55.426;37.756;2023-01-01T22:32:53;1.02;;;0.47;;
42670;SDS011;28283;55.426;37.756;2023-01-01T22:37:58;1.65;;;0.50;;
42670;SDS011;28283;55.426;37.756;2023-01-01T22:48:09;0.40;;;0.40;;
42670;SDS011;28283;55.426;37.756;2023-01-01T22:53:18;1.95;;;0.55;;
42670;SDS011;28283;55.426;37.756;2023-01-01T22:58:19;0.25;;;0.20;;
42670;SDS011;28283;55.426;37.756;2023-01-01T23:03:26;2.10;;;0.70;;
42670;SDS011;28283;55.426;37.756;2023-01-01T23:09:02;1.83;;;0.47;;
42670;SDS011;28283;55.426;37.756;2023-01-01T23:14:32;5.10;;;1.05;;
42670;SDS011;28283;55.426;37.756;2023-01-01T23:20:00;0.95;;;0.70;;
42670;SDS011;28283;55.426;37.756;2023-01-01T23:25:03;0.45;;;0.35;;
42670;SDS011;28283;55.426;37.756;2023-01-01T23:30:07;0.85;;;0.68;;
42670;SDS011;28283;55.426;37.756;2023-01-01T23:40:09;2.92;;;1.58;;
42670;SDS011;28283;55.426;37.756;2023-01-01T23:45:10;4.75;;;1.00;;
42670;SDS011;28283;55.426;37.756;2023-01-01T23:50:11;1.52;;;0.93;;
42670;SDS011;28283;55.426;37.756;2023-01-01T23:55:12;0.55;;;0.43;;
